createdAt,value
2019-01-13T00:01:43.671Z,98267.00
2019-01-13T00:04:11.575Z,98282.24
2019-01-13T00:06:40.139Z,98290.97
2019-01-13T00:09:08.258Z,98288.35
2019-01-13T00:11:36.784Z,98285.14
2019-01-13T00:14:05.324Z,98285.84
2019-01-13T00:16:35.709Z,98262.12
2019-01-13T00:19:04.962Z,98273.13
2019-01-13T00:21:32.873Z,98259.52
2019-01-13T00:24:00.869Z,98275.64
2019-01-13T00:26:29.507Z,98229.34
2019-01-13T00:28:57.942Z,98272.42
2019-01-13T00:31:26.212Z,98268.92
2019-01-13T00:33:54.254Z,98266.24
2019-01-13T00:36:23.755Z,98294.33
2019-01-13T00:38:52.534Z,98272.20
2019-01-13T00:41:21.745Z,98282.62
2019-01-13T00:46:31.304Z,98278.49
2019-01-13T00:49:01.056Z,98244.56
2019-01-13T00:51:29.628Z,98283.94
2019-01-13T00:53:58.311Z,98283.02
2019-01-13T00:56:27.084Z,98290.52
2019-01-13T00:58:55.978Z,98278.95
2019-01-13T01:01:24.627Z,98294.41
2019-01-13T01:03:53.071Z,98273.52
2019-01-13T01:06:21.187Z,98291.34
2019-01-13T01:08:49.890Z,98296.32
2019-01-13T01:11:18.051Z,98293.04
2019-01-13T01:13:46.297Z,98305.80
2019-01-13T01:16:14.945Z,98298.77
2019-01-13T01:18:44.376Z,98300.60
2019-01-13T01:21:12.830Z,98269.52
2019-01-13T01:23:42.814Z,98304.20
2019-01-13T01:26:11.105Z,98264.60
2019-01-13T01:28:39.174Z,98218.16
2019-01-13T01:31:07.849Z,98297.94
2019-01-13T01:33:35.633Z,98295.47
2019-01-13T01:36:05.061Z,98304.44
2019-01-13T01:38:33.866Z,98297.00
2019-01-13T01:41:02.340Z,98296.08
2019-01-13T01:43:30.937Z,98297.17
2019-01-13T01:45:59.428Z,98289.72
2019-01-13T01:48:27.595Z,98287.67
2019-01-13T01:50:55.614Z,98293.79
2019-01-13T01:53:25.413Z,98290.65
2019-01-13T01:55:53.924Z,98296.83
2019-01-13T01:58:22.230Z,98301.67
2019-01-13T02:00:51.145Z,98297.25
2019-01-13T02:03:20.063Z,98277.33
2019-01-13T02:05:48.744Z,98290.88
2019-01-13T02:08:17.351Z,98294.80
2019-01-13T02:10:46.223Z,98269.00
2019-01-13T02:13:14.441Z,98249.31
2019-01-13T02:15:42.938Z,98289.81
2019-01-13T02:18:11.374Z,98283.84
2019-01-13T02:20:39.956Z,98287.77
2019-01-13T02:23:09.122Z,98282.78
2019-01-13T02:25:38.846Z,98284.16
2019-01-13T02:28:06.988Z,98278.72
2019-01-13T02:30:35.505Z,98257.59
2019-01-13T02:33:03.772Z,98278.87
2019-01-13T02:35:31.695Z,98276.05
2019-01-13T02:37:59.930Z,98274.95
2019-01-13T02:40:27.775Z,98279.02
2019-01-13T02:42:56.160Z,98278.19
2019-01-13T02:45:27.284Z,98279.85
2019-01-13T02:47:55.680Z,98274.27
2019-01-13T02:50:23.643Z,98274.97
2019-01-13T02:52:52.279Z,98270.97
2019-01-13T02:55:20.302Z,98273.90
2019-01-13T02:57:48.391Z,98272.83
2019-01-13T03:00:18.825Z,98270.82
2019-01-13T03:02:47.097Z,98271.37
2019-01-13T03:05:15.423Z,98273.28
2019-01-13T03:07:43.726Z,98271.91
2019-01-13T03:10:15.673Z,98273.21
2019-01-13T03:12:43.587Z,98261.63
2019-01-13T03:15:19.498Z,98241.36
2019-01-13T03:17:40.678Z,98264.31
2019-01-13T03:20:09.314Z,98260.17
2019-01-13T03:22:37.859Z,98268.15
2019-01-13T03:25:07.979Z,98269.91
2019-01-13T03:27:35.746Z,98265.53
2019-01-13T03:30:05.084Z,98254.59
2019-01-13T03:32:33.198Z,98254.13
2019-01-13T03:35:01.382Z,98177.23
2019-01-13T03:37:29.611Z,98240.13
2019-01-13T03:39:57.410Z,98241.81
2019-01-13T03:42:26.305Z,98238.88
2019-01-13T03:44:54.974Z,98232.63
2019-01-13T03:47:24.713Z,98230.54
2019-01-13T03:49:53.662Z,98192.45
2019-01-13T03:52:24.955Z,98223.88
2019-01-13T03:54:53.879Z,98225.18
2019-01-13T03:57:21.899Z,98221.73
2019-01-13T03:59:49.825Z,98230.61
2019-01-13T04:02:17.953Z,98194.36
2019-01-13T04:04:46.148Z,98220.50
2019-01-13T04:07:14.123Z,98225.80
2019-01-13T04:09:42.130Z,98189.13
2019-01-13T04:12:10.390Z,98237.20
2019-01-13T04:14:39.040Z,98238.25
2019-01-13T04:17:07.070Z,98165.34
2019-01-13T04:19:34.999Z,98225.80
2019-01-13T04:22:03.341Z,98238.48
2019-01-13T04:24:31.597Z,98245.90
2019-01-13T04:26:59.563Z,98248.36
2019-01-13T04:29:28.032Z,98237.08
2019-01-13T04:31:55.747Z,98232.87
2019-01-13T04:34:23.429Z,98228.90
2019-01-13T04:36:51.916Z,98220.91
2019-01-13T04:39:19.947Z,98205.08
2019-01-13T04:41:47.890Z,98217.78
2019-01-13T04:44:16.557Z,98171.29
2019-01-13T04:46:44.391Z,98215.70
2019-01-13T04:49:12.520Z,98190.69
2019-01-13T04:51:40.657Z,98168.67
2019-01-13T04:54:08.594Z,98197.77
2019-01-13T04:56:36.623Z,98204.83
2019-01-13T04:59:04.925Z,98189.62
2019-01-13T05:01:34.876Z,98180.95
2019-01-13T05:04:01.328Z,98202.98
2019-01-13T05:06:29.713Z,98189.94
2019-01-13T05:08:57.631Z,98193.47
2019-01-13T05:11:25.602Z,98154.70
2019-01-13T05:13:54.155Z,98131.47
2019-01-13T05:16:22.056Z,98165.77
2019-01-13T05:18:49.868Z,98141.91
2019-01-13T05:21:18.180Z,98218.25
2019-01-13T05:23:46.010Z,98152.89
2019-01-13T05:26:14.370Z,98143.93
2019-01-13T05:28:43.028Z,98179.73
2019-01-13T05:31:11.114Z,98121.75
2019-01-13T05:33:39.267Z,98119.17
2019-01-13T05:36:07.211Z,98155.77
2019-01-13T05:38:35.454Z,98158.61
2019-01-13T05:41:03.633Z,98153.09
2019-01-13T05:43:31.737Z,98148.78
2019-01-13T05:46:00.648Z,98141.00
2019-01-13T05:48:29.348Z,98144.05
2019-01-13T05:50:57.726Z,98144.90
2019-01-13T05:53:25.636Z,98143.73
2019-01-13T05:55:53.564Z,98136.54
2019-01-13T05:58:21.542Z,98181.30
2019-01-13T06:00:49.575Z,98154.34
2019-01-13T06:03:18.604Z,98091.25
2019-01-13T06:08:20.362Z,98120.52
2019-01-13T06:10:49.238Z,98134.22
2019-01-13T06:13:17.144Z,98134.61
2019-01-13T06:15:46.286Z,98134.14
2019-01-13T06:18:14.822Z,98063.77
2019-01-13T06:20:42.765Z,98121.13
2019-01-13T06:23:11.563Z,98119.13
2019-01-13T06:25:39.710Z,98116.13
2019-01-13T06:28:08.103Z,98117.13
2019-01-13T06:30:36.692Z,98121.17
2019-01-13T06:33:04.884Z,98120.27
2019-01-13T06:35:33.044Z,98097.66
2019-01-13T06:38:01.129Z,98108.57
2019-01-13T06:40:29.343Z,98101.76
2019-01-13T06:42:57.303Z,98092.27
2019-01-13T06:45:26.063Z,98051.39
2019-01-13T06:47:55.563Z,98039.81
2019-01-13T06:50:24.616Z,98097.63
2019-01-13T06:52:52.531Z,98077.48
2019-01-13T06:55:20.664Z,98069.11
2019-01-13T06:57:48.865Z,98091.06
2019-01-13T07:00:22.083Z,98078.84
2019-01-13T07:02:54.043Z,98101.41
2019-01-13T07:05:22.060Z,98092.96
2019-01-13T07:07:50.143Z,98095.97
2019-01-13T07:10:18.830Z,98092.58
2019-01-13T07:12:46.894Z,98096.71
2019-01-13T07:15:15.607Z,98085.55
2019-01-13T07:17:44.224Z,98086.92
2019-01-13T07:20:14.077Z,98064.98
2019-01-13T07:22:43.078Z,98046.23
2019-01-13T07:25:11.260Z,98073.05
2019-01-13T07:27:39.945Z,98060.20
2019-01-13T07:30:17.147Z,98079.83
2019-01-13T07:32:45.761Z,98084.75
2019-01-13T07:35:14.165Z,98063.14
2019-01-13T07:37:42.412Z,98068.54
2019-01-13T07:40:14.022Z,98066.91
2019-01-13T07:42:42.222Z,98060.18
2019-01-13T07:45:11.710Z,98061.61
2019-01-13T07:47:40.609Z,98039.14
2019-01-13T07:50:09.985Z,98024.52
2019-01-13T07:52:40.131Z,98006.50
2019-01-13T07:55:11.855Z,98045.36
2019-01-13T07:57:41.182Z,98034.70
2019-01-13T08:00:14.453Z,98044.92
2019-01-13T08:02:43.162Z,98047.13
2019-01-13T08:05:11.342Z,98050.35
2019-01-13T08:07:39.591Z,98050.84
2019-01-13T08:10:09.960Z,98051.52
2019-01-13T08:12:38.971Z,97995.19
2019-01-13T08:15:07.850Z,98041.70
2019-01-13T08:17:37.782Z,98037.98
2019-01-13T08:20:08.190Z,98028.94
2019-01-13T08:22:35.880Z,98020.44
2019-01-13T08:25:04.996Z,98011.55
2019-01-13T08:27:32.698Z,97896.95
2019-01-13T08:30:00.935Z,98000.70
2019-01-13T08:32:29.035Z,97819.78
2019-01-13T08:34:57.130Z,97956.86
2019-01-13T08:37:24.914Z,97981.11
2019-01-13T08:39:54.304Z,97977.13
2019-01-13T08:42:22.922Z,97968.52
2019-01-13T08:44:50.747Z,97969.94
2019-01-13T08:47:19.027Z,97880.88
2019-01-13T08:49:53.141Z,97829.25
2019-01-13T08:52:20.873Z,97952.77
2019-01-13T08:54:54.292Z,97933.09
2019-01-13T08:57:22.760Z,97944.48
2019-01-13T09:00:00.929Z,97707.73
2019-01-13T09:02:32.313Z,97920.03
2019-01-13T09:05:01.496Z,97944.42
2019-01-13T09:07:30.277Z,97897.77
2019-01-13T09:09:58.727Z,97816.12
2019-01-13T09:12:27.429Z,97841.20
2019-01-13T09:14:57.614Z,97907.84
2019-01-13T09:17:25.645Z,97888.13
2019-01-13T09:19:54.716Z,97754.13
2019-01-13T09:22:23.085Z,97869.91
2019-01-13T09:24:56.941Z,97859.77
2019-01-13T09:27:25.133Z,97840.20
2019-01-13T09:29:56.473Z,97846.28
2019-01-13T09:32:24.837Z,97846.28
2019-01-13T09:34:54.391Z,97843.91
2019-01-13T09:37:22.982Z,97833.09
2019-01-13T09:39:51.440Z,97836.91
2019-01-13T09:42:27.613Z,97829.66
2019-01-13T09:44:55.560Z,97821.37
2019-01-13T09:47:25.418Z,97816.12
2019-01-13T09:49:55.942Z,97734.41
2019-01-13T09:52:24.773Z,97808.73
2019-01-13T09:54:52.582Z,97805.14
2019-01-13T09:57:20.371Z,97802.38
2019-01-13T09:59:51.313Z,97653.73
2019-01-13T10:02:23.306Z,97784.19
2019-01-13T10:04:51.370Z,97769.52
2019-01-13T10:07:23.919Z,97757.48
2019-01-13T10:09:52.159Z,97756.25
2019-01-13T10:12:20.114Z,97740.91
2019-01-13T10:14:51.787Z,97742.94
2019-01-13T10:17:20.665Z,97735.94
2019-01-13T10:19:52.552Z,97616.34
2019-01-13T10:22:20.476Z,97729.16
2019-01-13T10:24:53.640Z,97534.17
2019-01-13T10:27:32.739Z,97504.32
2019-01-13T10:30:06.804Z,97694.27
2019-01-13T10:32:35.676Z,97540.44
2019-01-13T10:35:09.765Z,97683.20
2019-01-13T10:37:38.789Z,97669.83
2019-01-13T10:40:09.218Z,97661.73
2019-01-13T10:42:37.126Z,97665.00
2019-01-13T10:45:05.759Z,97653.86
2019-01-13T10:47:33.989Z,97649.12
2019-01-13T10:50:03.882Z,97579.15
2019-01-13T10:52:31.684Z,97600.68
2019-01-13T10:55:00.163Z,97637.08
2019-01-13T10:57:28.234Z,97633.42
2019-01-13T10:59:56.108Z,97632.05
2019-01-13T11:02:24.892Z,97626.75
2019-01-13T11:04:53.047Z,97613.53
2019-01-13T11:07:22.427Z,97605.77
2019-01-13T11:09:51.059Z,97606.15
2019-01-13T11:12:18.878Z,97606.20
2019-01-13T11:14:46.948Z,97591.02
2019-01-13T11:17:15.861Z,97584.83
2019-01-13T11:19:44.046Z,97579.71
2019-01-13T11:22:13.900Z,97558.67
2019-01-13T11:24:42.323Z,97533.30
2019-01-13T11:27:10.416Z,97555.82
2019-01-13T11:29:39.863Z,97538.66
2019-01-13T11:32:08.328Z,97539.42
2019-01-13T11:34:36.546Z,97538.06
2019-01-13T11:37:04.833Z,97533.31
2019-01-13T11:39:33.583Z,97473.85
2019-01-13T11:42:01.506Z,97475.86
2019-01-13T11:44:29.151Z,97510.19
2019-01-13T11:46:56.895Z,97504.55
2019-01-13T11:49:24.671Z,97501.28
2019-01-13T11:51:53.051Z,97486.71
2019-01-13T11:54:21.263Z,97479.85
2019-01-13T11:56:49.396Z,97478.31
2019-01-13T11:59:17.412Z,97463.91
2019-01-13T12:01:45.994Z,97473.96
2019-01-13T12:04:13.726Z,97466.83
2019-01-13T12:06:42.816Z,97464.19
2019-01-13T12:09:10.681Z,97464.83
2019-01-13T12:11:38.753Z,97451.14
2019-01-13T12:14:06.875Z,97450.27
2019-01-13T12:16:35.799Z,97430.82
2019-01-13T12:19:06.706Z,97419.39
2019-01-13T12:21:36.114Z,97422.20
2019-01-13T12:24:04.435Z,97418.34
2019-01-13T12:26:32.838Z,97408.84
2019-01-13T12:29:01.343Z,97408.23
2019-01-13T12:31:30.221Z,97400.34
2019-01-13T12:33:57.953Z,97389.05
2019-01-13T12:36:26.127Z,97385.41
2019-01-13T12:38:54.149Z,97377.74
2019-01-13T12:41:23.830Z,97304.69
2019-01-13T12:43:52.292Z,97345.30
2019-01-13T12:46:20.454Z,97382.30
2019-01-13T12:48:48.363Z,97348.00
2019-01-13T12:51:16.597Z,97338.48
2019-01-13T12:53:45.033Z,97342.39
2019-01-13T12:56:13.110Z,97286.84
2019-01-13T12:58:41.140Z,97295.83
2019-01-13T13:01:08.862Z,97334.53
2019-01-13T13:03:36.535Z,97287.94
2019-01-13T13:06:04.812Z,97318.33
2019-01-13T13:08:34.558Z,97319.59
2019-01-13T13:11:03.497Z,97311.19
2019-01-13T13:13:31.950Z,97305.55
2019-01-13T13:16:00.223Z,97302.16
2019-01-13T13:18:31.017Z,97290.10
2019-01-13T13:20:59.815Z,97303.66
2019-01-13T13:23:29.277Z,97280.05
2019-01-13T13:25:57.431Z,97281.19
2019-01-13T13:28:28.654Z,97273.78
2019-01-13T13:30:58.054Z,97273.16
2019-01-13T13:33:26.608Z,97272.19
2019-01-13T13:35:55.178Z,97262.38
2019-01-13T13:38:23.670Z,97258.75
2019-01-13T13:40:51.562Z,97264.69
2019-01-13T13:43:19.981Z,97251.45
2019-01-13T13:45:48.237Z,97262.53
2019-01-13T13:48:16.260Z,97214.61
2019-01-13T13:50:47.243Z,97194.63
2019-01-13T13:53:15.228Z,97246.97
2019-01-13T13:55:45.441Z,97242.81
2019-01-13T13:58:14.055Z,97235.89
2019-01-13T14:00:45.687Z,97217.16
2019-01-13T14:03:17.219Z,97222.95
2019-01-13T14:05:50.524Z,97205.06
2019-01-13T14:08:18.331Z,97199.44
2019-01-13T14:10:47.112Z,97191.02
2019-01-13T14:13:27.383Z,97180.45
2019-01-13T14:15:55.331Z,97055.62
2019-01-13T14:18:24.294Z,97173.01
2019-01-13T14:20:53.232Z,97178.91
2019-01-13T14:23:24.219Z,97178.04
2019-01-13T14:25:52.095Z,97180.17
2019-01-13T14:28:25.049Z,97176.90
2019-01-13T14:30:54.003Z,97071.18
2019-01-13T14:33:26.286Z,97151.98
2019-01-13T14:35:56.268Z,97152.63
2019-01-13T14:38:25.679Z,97158.66
2019-01-13T14:40:53.923Z,97160.42
2019-01-13T14:43:22.190Z,97137.53
2019-01-13T14:45:51.355Z,97151.86
2019-01-13T14:48:23.890Z,97078.47
2019-01-13T14:50:53.180Z,97146.22
2019-01-13T14:53:24.875Z,97128.50
2019-01-13T14:55:53.252Z,97141.28
2019-01-13T14:58:21.411Z,97131.12
2019-01-13T15:00:49.177Z,97115.53
2019-01-13T15:03:20.767Z,97131.97
2019-01-13T15:05:50.851Z,97046.33
2019-01-13T15:08:21.233Z,97131.98
2019-01-13T15:10:49.852Z,97125.93
2019-01-13T15:13:18.760Z,97123.38
2019-01-13T15:15:47.477Z,97115.45
2019-01-13T15:18:17.168Z,97106.89
2019-01-13T15:20:45.605Z,97109.64
2019-01-13T15:23:13.591Z,97097.05
2019-01-13T15:25:41.689Z,97074.46
2019-01-13T15:28:12.723Z,96863.74
2019-01-13T15:30:40.609Z,97084.11
2019-01-13T15:33:09.418Z,97082.72
2019-01-13T15:35:38.141Z,97072.52
2019-01-13T15:38:08.196Z,97088.63
2019-01-13T15:40:37.016Z,97096.58
2019-01-13T15:43:05.356Z,97093.53
2019-01-13T15:45:34.715Z,97102.59
2019-01-13T15:48:02.698Z,97101.58
2019-01-13T15:50:30.975Z,97114.02
2019-01-13T15:53:05.471Z,97046.69
2019-01-13T15:55:34.403Z,97089.34
2019-01-13T15:58:03.785Z,97102.06
2019-01-13T16:00:35.143Z,97089.98
2019-01-13T16:03:04.492Z,97084.95
2019-01-13T16:05:33.028Z,97078.02
2019-01-13T16:08:01.556Z,97074.37
2019-01-13T16:10:30.368Z,96990.42
2019-01-13T16:12:58.441Z,97027.33
2019-01-13T16:15:34.120Z,97063.92
2019-01-13T16:18:01.120Z,97041.85
2019-01-13T16:20:35.457Z,97051.78
2019-01-13T16:23:07.085Z,97040.44
2019-01-13T16:25:39.474Z,97022.11
2019-01-13T16:28:07.844Z,97004.38
2019-01-13T16:30:43.556Z,97014.89
2019-01-13T16:33:11.846Z,97012.60
2019-01-13T16:35:42.219Z,96985.15
2019-01-13T16:38:11.961Z,97001.28
2019-01-13T16:40:41.406Z,96937.19
2019-01-13T16:43:09.703Z,96976.27
2019-01-13T16:45:39.910Z,96947.00
2019-01-13T16:48:08.558Z,96979.73
2019-01-13T16:50:38.249Z,96994.62
2019-01-13T16:53:08.090Z,96996.84
2019-01-13T16:55:41.872Z,96972.66
2019-01-13T16:58:11.779Z,96966.98
2019-01-13T17:00:42.020Z,96927.64
2019-01-13T17:03:11.961Z,96967.98
2019-01-13T17:05:45.159Z,96972.61
2019-01-13T17:08:14.222Z,96976.63
2019-01-13T17:10:42.620Z,96951.31
2019-01-13T17:13:10.495Z,96946.27
2019-01-13T17:15:39.283Z,96843.05
2019-01-13T17:18:10.059Z,96939.48
2019-01-13T17:20:38.081Z,96941.35
2019-01-13T17:23:06.100Z,96931.52
2019-01-13T17:25:35.200Z,96936.81
2019-01-13T17:28:03.150Z,96919.47
2019-01-13T17:30:34.129Z,96973.56
2019-01-13T17:33:03.583Z,96893.35
2019-01-13T17:35:31.629Z,96936.49
2019-01-13T17:37:59.600Z,96915.72
2019-01-13T17:40:29.069Z,96918.62
2019-01-13T17:42:56.914Z,96921.53
2019-01-13T17:45:28.963Z,96911.95
2019-01-13T17:47:57.619Z,96907.92
2019-01-13T17:50:25.391Z,96898.37
2019-01-13T17:52:56.105Z,96897.88
2019-01-13T17:55:25.427Z,96886.27
2019-01-13T17:57:53.815Z,96897.26
2019-01-13T18:00:39.699Z,96937.80
2019-01-13T18:03:09.497Z,96891.23
2019-01-13T18:05:37.412Z,96890.75
2019-01-13T18:08:11.173Z,96886.13
2019-01-13T18:10:39.863Z,96902.72
2019-01-13T18:13:09.071Z,96898.56
2019-01-13T18:15:36.901Z,96913.00
2019-01-13T18:18:07.255Z,96902.55
2019-01-13T18:20:35.153Z,96902.31
2019-01-13T18:23:03.658Z,96910.89
2019-01-13T18:25:32.119Z,96909.89
2019-01-13T18:27:59.983Z,96913.91
2019-01-13T18:30:27.769Z,96839.18
2019-01-13T18:32:57.044Z,96912.38
2019-01-13T18:35:25.668Z,96903.80
2019-01-13T18:37:53.602Z,96910.73
2019-01-13T18:40:21.974Z,96928.10
2019-01-13T18:42:50.312Z,96922.32
2019-01-13T18:45:18.237Z,96922.21
2019-01-13T18:47:46.271Z,96891.72
2019-01-13T18:50:16.848Z,96945.99
2019-01-13T18:52:47.583Z,96951.66
2019-01-13T18:55:15.823Z,96936.89
2019-01-13T18:57:44.331Z,96990.30
2019-01-13T19:00:17.496Z,96945.64
2019-01-13T19:02:47.794Z,96951.28
2019-01-13T19:05:18.680Z,96965.54
2019-01-13T19:07:46.916Z,96935.48
2019-01-13T19:10:21.723Z,96909.92
2019-01-13T19:12:51.649Z,96964.88
2019-01-13T19:15:19.861Z,96929.16
2019-01-13T19:17:48.243Z,96961.42
2019-01-13T19:20:21.764Z,96954.38
2019-01-13T19:22:53.181Z,96960.67
2019-01-13T19:25:28.006Z,97002.41
2019-01-13T19:27:56.597Z,97085.31
2019-01-13T19:30:25.408Z,97085.00
2019-01-13T19:32:54.271Z,97095.81
2019-01-13T19:35:22.118Z,97072.03
2019-01-13T19:37:50.719Z,97073.52
2019-01-13T19:40:19.052Z,97064.45
2019-01-13T19:42:47.602Z,97058.02
2019-01-13T19:45:17.161Z,97037.03
2019-01-13T19:47:46.338Z,97041.67
2019-01-13T19:50:21.898Z,96998.48
2019-01-13T19:52:51.089Z,97021.73
2019-01-13T19:55:24.450Z,97043.23
2019-01-13T19:57:53.926Z,97026.08
2019-01-13T20:00:29.616Z,97041.81
2019-01-13T20:03:01.298Z,97007.63
2019-01-13T20:05:30.608Z,97033.89
2019-01-13T20:07:58.761Z,97041.55
2019-01-13T20:10:26.991Z,97031.78
2019-01-13T20:12:55.124Z,97026.91
2019-01-13T20:15:23.486Z,96916.13
2019-01-13T20:17:55.955Z,97026.55
2019-01-13T20:20:23.875Z,97002.59
2019-01-13T20:22:52.004Z,97026.05
2019-01-13T20:25:22.330Z,97037.97
2019-01-13T20:27:50.204Z,97034.45
2019-01-13T20:30:20.546Z,97022.23
2019-01-13T20:32:48.420Z,97046.40
2019-01-13T20:35:19.276Z,97031.22
2019-01-13T20:37:45.326Z,97015.34
2019-01-13T20:40:14.783Z,97033.98
2019-01-13T20:42:42.848Z,97022.44
2019-01-13T20:45:16.455Z,96955.52
2019-01-13T20:47:44.425Z,97026.73
2019-01-13T20:50:13.903Z,97018.44
2019-01-13T20:52:43.110Z,97029.98
2019-01-13T20:55:11.744Z,97036.15
2019-01-13T20:57:40.752Z,97024.96
2019-01-13T21:00:14.202Z,97034.50
2019-01-13T21:02:42.092Z,97023.20
2019-01-13T21:05:10.933Z,97015.92
2019-01-13T21:07:39.609Z,97024.08
2019-01-13T21:10:08.943Z,97036.24
2019-01-13T21:12:37.109Z,97039.50
2019-01-13T21:15:07.203Z,97030.48
2019-01-13T21:17:35.836Z,97024.72
2019-01-13T21:20:05.704Z,97025.10
2019-01-13T21:22:34.797Z,96953.91
2019-01-13T21:25:03.113Z,97046.42
2019-01-13T21:27:32.108Z,97008.26
2019-01-13T21:30:02.041Z,97035.05
2019-01-13T21:32:29.988Z,97061.90
2019-01-13T21:34:57.737Z,97043.83
2019-01-13T21:37:25.858Z,97048.86
2019-01-13T21:39:53.838Z,97046.95
2019-01-13T21:42:21.625Z,97051.62
2019-01-13T21:44:49.483Z,97044.81
2019-01-13T21:47:17.588Z,97060.11
2019-01-13T21:49:46.796Z,97006.50
2019-01-13T21:52:14.679Z,97067.70
2019-01-13T21:54:43.204Z,97068.06
2019-01-13T21:57:11.314Z,97067.04
2019-01-13T21:59:39.791Z,96977.32
2019-01-13T22:02:07.876Z,97076.44
2019-01-13T22:04:35.641Z,97098.14
2019-01-13T22:07:04.565Z,97096.14
2019-01-13T22:09:32.928Z,97093.12
2019-01-13T22:12:01.028Z,97100.91
2019-01-13T22:14:29.881Z,97092.47
2019-01-13T22:16:58.138Z,97096.73
2019-01-13T22:19:26.038Z,97105.92
2019-01-13T22:21:53.990Z,97111.30
2019-01-13T22:24:21.929Z,97107.77
2019-01-13T22:26:49.807Z,97098.91
2019-01-13T22:29:17.910Z,97110.06
2019-01-13T22:31:46.723Z,97106.31
2019-01-13T22:34:14.574Z,97111.83
2019-01-13T22:36:42.424Z,97104.81
2019-01-13T22:39:10.314Z,97122.38
2019-01-13T22:41:38.453Z,97109.45
2019-01-13T22:44:06.473Z,97079.13
2019-01-13T22:46:34.630Z,97122.26
2019-01-13T22:49:03.059Z,97098.25
2019-01-13T22:51:30.811Z,97125.67
2019-01-13T22:53:58.531Z,97120.64
2019-01-13T22:56:26.291Z,97118.77
2019-01-13T22:58:58.510Z,97109.36
2019-01-13T23:01:43.643Z,97118.88
2019-01-13T23:04:13.083Z,97111.22
2019-01-13T23:06:41.472Z,97110.59
2019-01-13T23:09:10.295Z,97106.95
2019-01-13T23:11:38.524Z,97045.31
2019-01-13T23:14:06.907Z,97109.84
2019-01-13T23:16:34.623Z,97107.45
2019-01-13T23:19:02.376Z,97101.44
2019-01-13T23:21:30.972Z,97065.22
2019-01-13T23:23:59.029Z,97097.27
2019-01-13T23:26:27.302Z,97112.86
2019-01-13T23:28:55.760Z,97110.33
2019-01-13T23:31:23.971Z,97127.55
2019-01-13T23:33:52.054Z,97114.27
2019-01-13T23:36:20.348Z,97120.05
2019-01-13T23:38:48.038Z,97121.82
2019-01-13T23:41:16.003Z,97129.69
2019-01-13T23:43:44.407Z,97122.32
2019-01-13T23:46:12.264Z,97102.70
2019-01-13T23:48:39.980Z,97123.94
2019-01-13T23:51:08.179Z,97129.95
2019-01-13T23:53:35.878Z,97141.23
2019-01-13T23:56:04.766Z,97131.57
2019-01-13T23:58:32.793Z,97138.48
